Flight Track Log - Related Links

Times and Time Zones

All times are in EDT time to prevent confusion due to time zone crossing. See the UCA3597 flight status page for this flight to view local times or setup timezone preferences in your user account.

Time Position Orientation Groundspeed Altitude Reporting Facility
EDT Latitude Longitude Course Direction KTS MPH feet Rate Location/Type
Sat 05:58:00 PM 39.2564 -77.3260 19° North  Level Estimated
Sat 05:59:00 PM 39.3182 -77.2991 19° North  Level Estimated
Sat 06:00:00 PM 39.3800 -77.2722 19° North  Level Estimated
Sat 06:01:00 PM 39.4417 -77.2451 19° North  Level Estimated
Sat 06:02:00 PM 39.5035 -77.2181 19° North  Level Estimated
Sat 06:03:00 PM 39.5652 -77.1910 19° North  Level Estimated
Sat 06:04:00 PM 39.6270 -77.1638 19° North  Level Estimated
Sat 06:05:00 PM 39.6887 -77.1366 19° North  Level Estimated
Sat 06:06:00 PM 39.7505 -77.1093 19° North  Level Estimated
Sat 06:07:00 PM 39.8122 -77.0820 19° North  Level Estimated
Sat 06:08:00 PM 39.8739 -77.0547 19° North  Level Estimated
Sat 06:09:00 PM 39.9356 -77.0273 19° North  Level Estimated
Sat 06:10:00 PM 39.9973 -76.9998 19° North  Level Estimated
Sat 06:11:00 PM 40.0590 -76.9723 19° North  Level Estimated
Sat 06:12:00 PM 40.1207 -76.9448 19° North  Level Estimated
Sat 06:13:00 PM 40.1824 -76.9172 19° North  Level Estimated
Sat 06:14:00 PM 40.2441 -76.8895 19° North  Level Estimated
Sat 06:15:00 PM 40.3058 -76.8618 19° North  Level Estimated
Sat 06:16:00 PM 40.3674 -76.8341 19° North  Level Estimated
Sat 06:17:00 PM 40.4291 -76.8063 19° North  Level Estimated
Sat 06:18:00 PM 40.4907 -76.7784 19° North  Level Estimated
Sat 06:19:00 PM 40.5524 -76.7505 19° North  Level Estimated
Sat 06:20:00 PM 40.6140 -76.7225 19° North  Level Estimated
Sat 06:21:00 PM 40.6757 -76.6945 19° North  Level Estimated
Sat 06:22:00 PM 40.7373 -76.6665 19° North  Level Estimated
Sat 06:23:00 PM 40.7989 -76.6383 19° North  Level Estimated
Sat 06:24:00 PM 40.8605 -76.6102 19° North  Level Estimated
Sat 06:25:00 PM 40.9221 -76.5819 19° North  Level Estimated
Sat 06:26:00 PM 40.9837 -76.5537 19° North  Level Estimated
Sat 06:27:00 PM 41.0453 -76.5253 19° North  Level Estimated
Sat 06:28:00 PM 41.1069 -76.4970 19° North  Level Estimated
Sat 06:29:00 PM 41.1685 -76.4685 19° North  Level Estimated
Sat 06:30:00 PM 41.2301 -76.4400 19° North  Level Estimated
Sat 06:31:00 PM 41.2916 -76.4115 19° North  Level Estimated
Sat 06:32:00 PM 41.3532 -76.3829 19° North  Level Estimated
Sat 06:33:00 PM 41.4147 -76.3543 19° North  Level Estimated
Sat 06:34:00 PM 41.4763 -76.3256 19° North  Level Estimated
Sat 06:35:00 PM 41.5378 -76.2968 19° North  Level Estimated
Sat 06:36:00 PM 41.5993 -76.2680 19° North  Level Estimated
Sat 06:37:00 PM 41.6609 -76.2391 19° North  Level Estimated
Sat 06:38:00 PM 41.7224 -76.2102 19° North  Level Estimated
Sat 06:39:00 PM 41.7839 -76.1812 19° North  Level Estimated
Sat 06:40:00 PM 41.8454 -76.1522 19° North  Level Estimated
Sat 06:41:00 PM 41.9069 -76.1231 19° North  Level Estimated
Sat 06:42:00 PM 41.9684 -76.0940 19° North  Level Estimated
Sat 06:43:00 PM 42.0299 -76.0648 19° North  Level Estimated
Sat 06:44:00 PM 42.0913 -76.0355 19° North  Level Estimated
Sat 06:45:00 PM 42.1528 -76.0062 19° North  Level Estimated
Sat 06:46:00 PM 42.2084 -75.9796 19° North  Level Estimated
Sat 06:47:00 PM 42.2084 -75.9796 35° Northeast  Level Estimated
Sat 06:48:00 PM 42.2084 -75.9796 35° Northeast  Level Estimated
Sat 06:49:00 PM 42.2084 -75.9796 35° Northeast  Level Estimated
Sat 06:50:00 PM 42.2084 -75.9796 35° Northeast  Level Estimated
Sat 06:51:00 PM 42.2084 -75.9796 35° Northeast  Level Estimated
Sat 06:52:00 PM 42.2084 -75.9796 35° Northeast  Level Estimated
Sat 06:53:00 PM 42.2084 -75.9796 35° Northeast  Level Estimated
Sat 06:54:00 PM 42.2084 -75.9796 35° Northeast  Level Estimated
Sat 06:55:00 PM 42.2084 -75.9796 35° Northeast  Level Estimated
Sat 06:56:00 PM 42.2084 -75.9796 35° Northeast  Level Estimated
Sat 06:57:00 PM 42.2084 -75.9796 35° Northeast  Level Estimated
Sat 06:58:00 PM 42.2084 -75.9796 35° Northeast  Level Estimated
Sat 06:59:00 PM 42.2084 -75.9796 35° Northeast  Level Estimated
Sat 07:00:00 PM 42.2084 -75.9796 35° Northeast  Level Estimated
Sat 07:01:00 PM 42.2084 -75.9796 35° Northeast  Level Estimated
Sat 07:02:00 PM 42.2084 -75.9796 35° Northeast  Level Estimated

Login

Don't have an account? Register now (free) for customized features, flight alerts, and more!